Main page
METAR-TAF:

METAR-TAF

Airports :

Emporia Municipal Airport

Emporia, Kansas, United States

latitude: 38-19-44N, longitude: 096-11-38W, elevation: 1204 ft

Current weather observation

The report was made 25 minutes ago, at 19:53 UTC
Wind 22 mph from the South/Southwest with gusts up to 30 mph
Temperature 93°F
Humidity 50%
Pressure 29.85 in. Hg
Visibility: 10 miles
Clear sky

METAR: KEMP 131953Z AUTO 20019G26KT 10SM CLR 34/22 A2985 RMK AO2 PK WND 20026/1953 SLP096 T03390222

Time: 15:18 (20:18 UTC)


TAF: missing

Weather observations and forecasts of more than 4000 airports (METAR and TAF reports).

The available stations are represented by yellow and red dots on the map.

Hover mouse over dot to see the name of the station.

Then click to see weather observations and forecasts.

To change the map : click on the green buttons with a black cross to zoom in, on the green button with a dash to zoom out, or on the green arrows for adjacent maps.


METAR-TAF: